sensor_id;sensor_type;location;lat;lon;timestamp;temperature;humidity
52103;DHT22;38101;53.126;6.878;2023-07-09T00:01:48;22.50;95.60
52103;DHT22;38101;53.126;6.878;2023-07-09T00:04:14;22.50;95.70
52103;DHT22;38101;53.126;6.878;2023-07-09T00:06:40;22.40;95.90
52103;DHT22;38101;53.126;6.878;2023-07-09T00:09:12;22.40;95.90
52103;DHT22;38101;53.126;6.878;2023-07-09T00:11:38;22.30;96.00
52103;DHT22;38101;53.126;6.878;2023-07-09T00:14:05;22.30;96.10
52103;DHT22;38101;53.126;6.878;2023-07-09T00:16:31;22.20;96.20
52103;DHT22;38101;53.126;6.878;2023-07-09T00:18:57;22.20;96.30
52103;DHT22;38101;53.126;6.878;2023-07-09T00:21:22;22.10;96.40
52103;DHT22;38101;53.126;6.878;2023-07-09T00:23:48;22.10;96.70
52103;DHT22;38101;53.126;6.878;2023-07-09T00:26:15;22.10;96.80
52103;DHT22;38101;53.126;6.878;2023-07-09T00:28:42;22.00;96.60
52103;DHT22;38101;53.126;6.878;2023-07-09T00:31:13;22.00;96.70
52103;DHT22;38101;53.126;6.878;2023-07-09T00:33:44;21.90;96.80
52103;DHT22;38101;53.126;6.878;2023-07-09T00:36:28;21.90;96.90
52103;DHT22;38101;53.126;6.878;2023-07-09T00:38:54;21.90;97.10
52103;DHT22;38101;53.126;6.878;2023-07-09T00:41:22;21.80;97.10
52103;DHT22;38101;53.126;6.878;2023-07-09T00:43:50;21.80;97.10
52103;DHT22;38101;53.126;6.878;2023-07-09T00:48:47;21.70;97.40
52103;DHT22;38101;53.126;6.878;2023-07-09T00:51:19;21.70;97.50
52103;DHT22;38101;53.126;6.878;2023-07-09T00:53:46;21.70;97.60
52103;DHT22;38101;53.126;6.878;2023-07-09T00:56:28;21.60;97.60
52103;DHT22;38101;53.126;6.878;2023-07-09T00:58:55;21.70;97.80
52103;DHT22;38101;53.126;6.878;2023-07-09T01:01:25;21.60;97.80
52103;DHT22;38101;53.126;6.878;2023-07-09T01:03:54;21.60;97.90
52103;DHT22;38101;53.126;6.878;2023-07-09T01:06:35;21.60;97.90
52103;DHT22;38101;53.126;6.878;2023-07-09T01:09:03;21.50;98.10
52103;DHT22;38101;53.126;6.878;2023-07-09T01:11:29;21.50;98.20
52103;DHT22;38101;53.126;6.878;2023-07-09T01:14:02;21.50;98.20
52103;DHT22;38101;53.126;6.878;2023-07-09T01:16:31;21.40;98.40
52103;DHT22;38101;53.126;6.878;2023-07-09T01:18:57;21.40;98.40
52103;DHT22;38101;53.126;6.878;2023-07-09T01:21:23;21.40;98.40
52103;DHT22;38101;53.126;6.878;2023-07-09T01:23:50;21.40;98.60
52103;DHT22;38101;53.126;6.878;2023-07-09T01:26:22;21.40;98.50
52103;DHT22;38101;53.126;6.878;2023-07-09T01:28:50;21.40;98.60
52103;DHT22;38101;53.126;6.878;2023-07-09T01:31:16;21.40;98.70
52103;DHT22;38101;53.126;6.878;2023-07-09T01:33:43;21.40;98.70
52103;DHT22;38101;53.126;6.878;2023-07-09T01:36:12;21.30;98.80
52103;DHT22;38101;53.126;6.878;2023-07-09T01:38:40;21.30;98.80
52103;DHT22;38101;53.126;6.878;2023-07-09T01:41:06;21.30;98.90
52103;DHT22;38101;53.126;6.878;2023-07-09T01:43:34;21.30;98.80
52103;DHT22;38101;53.126;6.878;2023-07-09T01:46:00;21.20;98.90
52103;DHT22;38101;53.126;6.878;2023-07-09T01:48:27;21.20;98.80
52103;DHT22;38101;53.126;6.878;2023-07-09T01:50:53;21.20;98.90
52103;DHT22;38101;53.126;6.878;2023-07-09T01:53:22;21.20;98.90
52103;DHT22;38101;53.126;6.878;2023-07-09T01:55:52;21.20;98.90
52103;DHT22;38101;53.126;6.878;2023-07-09T01:58:20;21.20;98.90
52103;DHT22;38101;53.126;6.878;2023-07-09T02:00:50;21.20;98.90
52103;DHT22;38101;53.126;6.878;2023-07-09T02:03:16;21.20;99.00
52103;DHT22;38101;53.126;6.878;2023-07-09T02:05:43;21.10;99.00
52103;DHT22;38101;53.126;6.878;2023-07-09T02:08:08;21.10;99.10
52103;DHT22;38101;53.126;6.878;2023-07-09T02:10:34;21.10;99.10
52103;DHT22;38101;53.126;6.878;2023-07-09T02:13:00;21.00;99.20
52103;DHT22;38101;53.126;6.878;2023-07-09T02:15:26;21.00;99.40
52103;DHT22;38101;53.126;6.878;2023-07-09T02:17:51;21.00;99.40
52103;DHT22;38101;53.126;6.878;2023-07-09T02:20:18;20.90;99.80
52103;DHT22;38101;53.126;6.878;2023-07-09T02:22:45;20.90;99.60
52103;DHT22;38101;53.126;6.878;2023-07-09T02:25:11;20.80;99.90
52103;DHT22;38101;53.126;6.878;2023-07-09T02:27:37;20.70;99.90
52103;DHT22;38101;53.126;6.878;2023-07-09T02:30:07;20.70;99.90
52103;DHT22;38101;53.126;6.878;2023-07-09T02:32:33;20.60;99.90
52103;DHT22;38101;53.126;6.878;2023-07-09T02:34:58;20.60;99.90
52103;DHT22;38101;53.126;6.878;2023-07-09T02:37:25;20.60;99.90
52103;DHT22;38101;53.126;6.878;2023-07-09T02:39:51;20.50;99.90
52103;DHT22;38101;53.126;6.878;2023-07-09T02:42:19;20.60;99.90
52103;DHT22;38101;53.126;6.878;2023-07-09T02:44:46;20.60;99.90
52103;DHT22;38101;53.126;6.878;2023-07-09T02:47:13;20.50;99.90
52103;DHT22;38101;53.126;6.878;2023-07-09T02:49:39;20.50;99.90
52103;DHT22;38101;53.126;6.878;2023-07-09T02:52:05;20.50;99.90
52103;DHT22;38101;53.126;6.878;2023-07-09T02:54:31;20.50;99.90
52103;DHT22;38101;53.126;6.878;2023-07-09T02:56:57;20.50;99.90
52103;DHT22;38101;53.126;6.878;2023-07-09T02:59:23;20.40;99.90
52103;DHT22;38101;53.126;6.878;2023-07-09T03:01:49;20.40;99.90
52103;DHT22;38101;53.126;6.878;2023-07-09T03:04:15;20.40;99.90
52103;DHT22;38101;53.126;6.878;2023-07-09T03:06:41;20.40;99.90
52103;DHT22;38101;53.126;6.878;2023-07-09T03:09:09;20.30;99.90
52103;DHT22;38101;53.126;6.878;2023-07-09T03:11:35;20.30;99.90
52103;DHT22;38101;53.126;6.878;2023-07-09T03:14:01;20.30;99.90
52103;DHT22;38101;53.126;6.878;2023-07-09T03:16:28;20.30;99.90
52103;DHT22;38101;53.126;6.878;2023-07-09T03:18:54;20.30;99.90
52103;DHT22;38101;53.126;6.878;2023-07-09T03:21:25;20.30;99.90
52103;DHT22;38101;53.126;6.878;2023-07-09T03:23:51;20.30;99.90
52103;DHT22;38101;53.126;6.878;2023-07-09T03:26:17;20.20;99.90
52103;DHT22;38101;53.126;6.878;2023-07-09T03:28:43;20.20;99.90
52103;DHT22;38101;53.126;6.878;2023-07-09T03:31:09;20.20;99.90
52103;DHT22;38101;53.126;6.878;2023-07-09T03:33:35;20.10;99.90
52103;DHT22;38101;53.126;6.878;2023-07-09T03:36:00;20.10;99.90
52103;DHT22;38101;53.126;6.878;2023-07-09T03:38:26;20.10;99.90
52103;DHT22;38101;53.126;6.878;2023-07-09T03:40:53;20.10;99.90
52103;DHT22;38101;53.126;6.878;2023-07-09T03:43:19;20.00;99.90
52103;DHT22;38101;53.126;6.878;2023-07-09T03:45:45;20.00;99.90
52103;DHT22;38101;53.126;6.878;2023-07-09T03:48:12;20.00;99.90
52103;DHT22;38101;53.126;6.878;2023-07-09T03:50:37;20.00;99.90
52103;DHT22;38101;53.126;6.878;2023-07-09T03:53:03;20.00;99.90
52103;DHT22;38101;53.126;6.878;2023-07-09T03:55:29;20.00;99.90
52103;DHT22;38101;53.126;6.878;2023-07-09T03:57:55;19.90;99.90
52103;DHT22;38101;53.126;6.878;2023-07-09T04:00:21;19.90;99.90
52103;DHT22;38101;53.126;6.878;2023-07-09T04:02:47;19.90;99.90
52103;DHT22;38101;53.126;6.878;2023-07-09T04:05:13;19.90;99.90
52103;DHT22;38101;53.126;6.878;2023-07-09T04:07:39;20.00;99.90
52103;DHT22;38101;53.126;6.878;2023-07-09T04:10:05;20.00;99.90
52103;DHT22;38101;53.126;6.878;2023-07-09T04:12:32;20.00;99.90
52103;DHT22;38101;53.126;6.878;2023-07-09T04:14:57;20.00;99.90
52103;DHT22;38101;53.126;6.878;2023-07-09T04:17:23;20.00;99.90
52103;DHT22;38101;53.126;6.878;2023-07-09T04:19:52;20.00;99.90
52103;DHT22;38101;53.126;6.878;2023-07-09T04:22:18;20.00;99.90
52103;DHT22;38101;53.126;6.878;2023-07-09T04:24:44;20.00;99.90
52103;DHT22;38101;53.126;6.878;2023-07-09T04:27:10;20.10;99.90
52103;DHT22;38101;53.126;6.878;2023-07-09T04:29:36;20.10;99.90
52103;DHT22;38101;53.126;6.878;2023-07-09T04:32:05;20.10;99.90
52103;DHT22;38101;53.126;6.878;2023-07-09T04:34:31;20.10;99.90
52103;DHT22;38101;53.126;6.878;2023-07-09T04:36:56;20.10;99.90
52103;DHT22;38101;53.126;6.878;2023-07-09T04:39:22;20.10;99.90
52103;DHT22;38101;53.126;6.878;2023-07-09T04:41:48;20.20;99.90
52103;DHT22;38101;53.126;6.878;2023-07-09T04:44:14;20.20;99.90
52103;DHT22;38101;53.126;6.878;2023-07-09T04:46:39;20.30;99.90
52103;DHT22;38101;53.126;6.878;2023-07-09T04:49:06;20.30;99.90
52103;DHT22;38101;53.126;6.878;2023-07-09T04:51:32;20.40;99.90
52103;DHT22;38101;53.126;6.878;2023-07-09T04:53:58;20.40;99.90
52103;DHT22;38101;53.126;6.878;2023-07-09T04:56:25;20.50;99.90
52103;DHT22;38101;53.126;6.878;2023-07-09T04:58:51;20.50;99.90
52103;DHT22;38101;53.126;6.878;2023-07-09T05:01:17;20.60;99.90
52103;DHT22;38101;53.126;6.878;2023-07-09T05:03:42;20.70;99.90
52103;DHT22;38101;53.126;6.878;2023-07-09T05:06:08;20.70;99.90
52103;DHT22;38101;53.126;6.878;2023-07-09T05:08:34;20.80;99.90
52103;DHT22;38101;53.126;6.878;2023-07-09T05:11:00;20.90;99.90
52103;DHT22;38101;53.126;6.878;2023-07-09T05:13:25;20.90;99.90
52103;DHT22;38101;53.126;6.878;2023-07-09T05:15:51;21.00;99.90
52103;DHT22;38101;53.126;6.878;2023-07-09T05:18:17;21.00;99.90
52103;DHT22;38101;53.126;6.878;2023-07-09T05:20:46;21.10;99.90
52103;DHT22;38101;53.126;6.878;2023-07-09T05:23:12;21.20;99.90
52103;DHT22;38101;53.126;6.878;2023-07-09T05:25:38;21.30;99.90
52103;DHT22;38101;53.126;6.878;2023-07-09T05:28:05;21.40;99.90
52103;DHT22;38101;53.126;6.878;2023-07-09T05:30:31;21.40;99.90
52103;DHT22;38101;53.126;6.878;2023-07-09T05:32:57;21.50;99.90
52103;DHT22;38101;53.126;6.878;2023-07-09T05:35:26;21.60;99.90
52103;DHT22;38101;53.126;6.878;2023-07-09T05:37:53;21.60;99.90
52103;DHT22;38101;53.126;6.878;2023-07-09T05:40:19;21.70;99.90
52103;DHT22;38101;53.126;6.878;2023-07-09T05:42:44;21.80;99.90
52103;DHT22;38101;53.126;6.878;2023-07-09T05:45:11;21.80;99.90
52103;DHT22;38101;53.126;6.878;2023-07-09T05:47:36;21.90;99.90
52103;DHT22;38101;53.126;6.878;2023-07-09T05:50:03;21.90;99.90
52103;DHT22;38101;53.126;6.878;2023-07-09T05:52:29;22.00;99.90
52103;DHT22;38101;53.126;6.878;2023-07-09T05:54:55;22.10;99.90
52103;DHT22;38101;53.126;6.878;2023-07-09T05:57:21;22.20;99.90
52103;DHT22;38101;53.126;6.878;2023-07-09T05:59:47;22.20;99.90
52103;DHT22;38101;53.126;6.878;2023-07-09T06:02:15;22.30;99.90
52103;DHT22;38101;53.126;6.878;2023-07-09T06:04:41;22.40;99.90
52103;DHT22;38101;53.126;6.878;2023-07-09T06:07:08;22.40;99.90
52103;DHT22;38101;53.126;6.878;2023-07-09T06:09:35;22.50;99.90
52103;DHT22;38101;53.126;6.878;2023-07-09T06:12:02;22.60;99.90
52103;DHT22;38101;53.126;6.878;2023-07-09T06:14:28;22.60;99.90
52103;DHT22;38101;53.126;6.878;2023-07-09T06:16:53;22.70;99.90
52103;DHT22;38101;53.126;6.878;2023-07-09T06:19:19;22.70;99.90
52103;DHT22;38101;53.126;6.878;2023-07-09T06:21:45;22.80;99.90
52103;DHT22;38101;53.126;6.878;2023-07-09T06:24:10;22.80;99.90
52103;DHT22;38101;53.126;6.878;2023-07-09T06:26:37;22.80;99.90
52103;DHT22;38101;53.126;6.878;2023-07-09T06:29:03;22.90;99.90
52103;DHT22;38101;53.126;6.878;2023-07-09T06:31:29;22.90;99.90
52103;DHT22;38101;53.126;6.878;2023-07-09T06:33:55;22.90;99.90
52103;DHT22;38101;53.126;6.878;2023-07-09T06:36:21;22.90;99.90
52103;DHT22;38101;53.126;6.878;2023-07-09T06:38:46;22.90;99.90
52103;DHT22;38101;53.126;6.878;2023-07-09T06:41:15;22.90;99.90
52103;DHT22;38101;53.126;6.878;2023-07-09T06:43:42;23.00;99.90
52103;DHT22;38101;53.126;6.878;2023-07-09T06:46:10;23.00;99.90
52103;DHT22;38101;53.126;6.878;2023-07-09T06:48:36;23.10;99.90
52103;DHT22;38101;53.126;6.878;2023-07-09T06:51:02;23.10;99.90
52103;DHT22;38101;53.126;6.878;2023-07-09T06:53:28;23.10;99.90
52103;DHT22;38101;53.126;6.878;2023-07-09T06:55:55;23.20;99.90
52103;DHT22;38101;53.126;6.878;2023-07-09T06:58:25;23.20;99.90
52103;DHT22;38101;53.126;6.878;2023-07-09T07:00:53;23.30;99.90
52103;DHT22;38101;53.126;6.878;2023-07-09T07:03:22;23.30;99.90
52103;DHT22;38101;53.126;6.878;2023-07-09T07:05:50;23.40;99.90
52103;DHT22;38101;53.126;6.878;2023-07-09T07:08:18;23.50;99.90
52103;DHT22;38101;53.126;6.878;2023-07-09T07:10:45;23.60;99.90
52103;DHT22;38101;53.126;6.878;2023-07-09T07:13:12;23.60;99.90
52103;DHT22;38101;53.126;6.878;2023-07-09T07:15:38;23.70;99.90
52103;DHT22;38101;53.126;6.878;2023-07-09T07:18:04;23.80;99.90
52103;DHT22;38101;53.126;6.878;2023-07-09T07:20:30;23.80;99.90
52103;DHT22;38101;53.126;6.878;2023-07-09T07:22:56;23.90;99.90
52103;DHT22;38101;53.126;6.878;2023-07-09T07:25:23;24.00;99.90
52103;DHT22;38101;53.126;6.878;2023-07-09T07:27:49;24.00;99.90
52103;DHT22;38101;53.126;6.878;2023-07-09T07:30:15;24.10;99.90
52103;DHT22;38101;53.126;6.878;2023-07-09T07:32:46;24.20;99.90
52103;DHT22;38101;53.126;6.878;2023-07-09T07:35:13;24.30;99.90
52103;DHT22;38101;53.126;6.878;2023-07-09T07:37:42;24.30;99.90
52103;DHT22;38101;53.126;6.878;2023-07-09T07:40:09;24.50;99.90
52103;DHT22;38101;53.126;6.878;2023-07-09T07:42:35;24.50;99.90
52103;DHT22;38101;53.126;6.878;2023-07-09T07:45:02;24.60;99.90
52103;DHT22;38101;53.126;6.878;2023-07-09T07:47:28;24.70;99.90
52103;DHT22;38101;53.126;6.878;2023-07-09T07:49:54;24.80;99.90
52103;DHT22;38101;53.126;6.878;2023-07-09T07:52:20;24.90;99.90
52103;DHT22;38101;53.126;6.878;2023-07-09T07:54:46;24.90;99.90
52103;DHT22;38101;53.126;6.878;2023-07-09T07:57:12;25.00;99.90
52103;DHT22;38101;53.126;6.878;2023-07-09T07:59:38;25.10;99.90
52103;DHT22;38101;53.126;6.878;2023-07-09T08:02:05;25.20;99.90
52103;DHT22;38101;53.126;6.878;2023-07-09T08:04:31;25.20;99.90
52103;DHT22;38101;53.126;6.878;2023-07-09T08:06:57;25.20;99.90
52103;DHT22;38101;53.126;6.878;2023-07-09T08:09:24;25.30;99.90
52103;DHT22;38101;53.126;6.878;2023-07-09T08:11:50;25.30;99.90
52103;DHT22;38101;53.126;6.878;2023-07-09T08:14:16;25.40;99.90
52103;DHT22;38101;53.126;6.878;2023-07-09T08:16:41;25.50;99.90
52103;DHT22;38101;53.126;6.878;2023-07-09T08:19:07;25.60;99.90
52103;DHT22;38101;53.126;6.878;2023-07-09T08:21:33;25.70;99.90
52103;DHT22;38101;53.126;6.878;2023-07-09T08:23:59;25.80;99.90
52103;DHT22;38101;53.126;6.878;2023-07-09T08:26:24;25.90;99.90
52103;DHT22;38101;53.126;6.878;2023-07-09T08:28:51;26.00;99.90
52103;DHT22;38101;53.126;6.878;2023-07-09T08:31:17;26.10;99.90
52103;DHT22;38101;53.126;6.878;2023-07-09T08:33:43;26.10;99.90
52103;DHT22;38101;53.126;6.878;2023-07-09T08:36:09;26.20;99.90
52103;DHT22;38101;53.126;6.878;2023-07-09T08:38:34;26.30;99.90
52103;DHT22;38101;53.126;6.878;2023-07-09T08:49:41;26.60;99.90
52103;DHT22;38101;53.126;6.878;2023-07-09T08:55:20;26.80;99.90
52103;DHT22;38101;53.126;6.878;2023-07-09T08:57:59;26.90;99.90
52103;DHT22;38101;53.126;6.878;2023-07-09T09:03:23;27.10;99.90
52103;DHT22;38101;53.126;6.878;2023-07-09T09:05:53;27.10;99.90
52103;DHT22;38101;53.126;6.878;2023-07-09T09:13:36;27.40;99.90
52103;DHT22;38101;53.126;6.878;2023-07-09T09:16:12;27.40;99.90
52103;DHT22;38101;53.126;6.878;2023-07-09T09:18:43;27.50;99.90
52103;DHT22;38101;53.126;6.878;2023-07-09T09:21:15;27.60;99.90
52103;DHT22;38101;53.126;6.878;2023-07-09T09:23:48;27.60;99.90
52103;DHT22;38101;53.126;6.878;2023-07-09T09:26:34;27.70;99.90
52103;DHT22;38101;53.126;6.878;2023-07-09T09:29:14;27.80;99.90
52103;DHT22;38101;53.126;6.878;2023-07-09T09:31:41;28.00;99.90
52103;DHT22;38101;53.126;6.878;2023-07-09T09:34:25;28.00;99.90
52103;DHT22;38101;53.126;6.878;2023-07-09T09:36:52;28.10;99.90
52103;DHT22;38101;53.126;6.878;2023-07-09T09:39:18;28.10;99.90
52103;DHT22;38101;53.126;6.878;2023-07-09T09:41:44;28.20;99.90
52103;DHT22;38101;53.126;6.878;2023-07-09T09:44:24;28.30;99.90
52103;DHT22;38101;53.126;6.878;2023-07-09T09:46:50;28.40;99.90
52103;DHT22;38101;53.126;6.878;2023-07-09T09:49:17;28.40;99.90
52103;DHT22;38101;53.126;6.878;2023-07-09T09:51:45;28.40;99.90
52103;DHT22;38101;53.126;6.878;2023-07-09T09:54:24;28.50;99.90
52103;DHT22;38101;53.126;6.878;2023-07-09T09:56:52;28.60;99.90
52103;DHT22;38101;53.126;6.878;2023-07-09T09:59:30;28.70;99.90
52103;DHT22;38101;53.126;6.878;2023-07-09T10:01:58;28.80;99.90
52103;DHT22;38101;53.126;6.878;2023-07-09T10:04:24;28.90;99.90
52103;DHT22;38101;53.126;6.878;2023-07-09T10:06:54;29.00;99.90
52103;DHT22;38101;53.126;6.878;2023-07-09T10:09:48;29.10;99.90
52103;DHT22;38101;53.126;6.878;2023-07-09T10:20:37;29.40;99.90
52103;DHT22;38101;53.126;6.878;2023-07-09T10:23:39;29.50;99.90
52103;DHT22;38101;53.126;6.878;2023-07-09T10:26:25;29.50;99.90
52103;DHT22;38101;53.126;6.878;2023-07-09T10:32:08;29.70;99.90
52103;DHT22;38101;53.126;6.878;2023-07-09T10:35:00;29.70;99.90
52103;DHT22;38101;53.126;6.878;2023-07-09T10:40:16;29.90;99.40
52103;DHT22;38101;53.126;6.878;2023-07-09T10:42:48;29.90;99.60
52103;DHT22;38101;53.126;6.878;2023-07-09T10:45:39;30.00;99.30
52103;DHT22;38101;53.126;6.878;2023-07-09T10:48:20;30.10;99.20
52103;DHT22;38101;53.126;6.878;2023-07-09T10:50:54;30.20;99.20
52103;DHT22;38101;53.126;6.878;2023-07-09T10:53:37;30.20;98.70
52103;DHT22;38101;53.126;6.878;2023-07-09T10:56:12;30.30;98.50
52103;DHT22;38101;53.126;6.878;2023-07-09T10:59:32;30.40;98.40
52103;DHT22;38101;53.126;6.878;2023-07-09T11:01:57;30.50;98.30
52103;DHT22;38101;53.126;6.878;2023-07-09T11:04:35;30.50;98.50
52103;DHT22;38101;53.126;6.878;2023-07-09T11:07:06;30.60;98.70
52103;DHT22;38101;53.126;6.878;2023-07-09T11:09:40;30.70;98.60
52103;DHT22;38101;53.126;6.878;2023-07-09T11:12:18;30.80;97.90
52103;DHT22;38101;53.126;6.878;2023-07-09T11:14:55;30.90;98.40
52103;DHT22;38101;53.126;6.878;2023-07-09T11:17:22;31.00;98.40
52103;DHT22;38101;53.126;6.878;2023-07-09T11:19:54;31.10;98.10
52103;DHT22;38101;53.126;6.878;2023-07-09T11:22:50;31.30;97.90
52103;DHT22;38101;53.126;6.878;2023-07-09T11:25:31;31.40;97.80
52103;DHT22;38101;53.126;6.878;2023-07-09T11:28:06;31.50;97.60
52103;DHT22;38101;53.126;6.878;2023-07-09T11:30:32;31.60;97.60
52103;DHT22;38101;53.126;6.878;2023-07-09T11:32:59;31.60;97.40
52103;DHT22;38101;53.126;6.878;2023-07-09T11:35:27;31.70;97.30
52103;DHT22;38101;53.126;6.878;2023-07-09T11:37:54;31.70;97.00
52103;DHT22;38101;53.126;6.878;2023-07-09T11:40:22;31.70;96.90
52103;DHT22;38101;53.126;6.878;2023-07-09T11:42:54;31.80;96.80
52103;DHT22;38101;53.126;6.878;2023-07-09T11:45:27;31.90;96.40
52103;DHT22;38101;53.126;6.878;2023-07-09T11:48:28;32.00;96.20
52103;DHT22;38101;53.126;6.878;2023-07-09T11:50:56;32.00;95.10
52103;DHT22;38101;53.126;6.878;2023-07-09T11:53:41;32.10;96.10
52103;DHT22;38101;53.126;6.878;2023-07-09T11:56:09;32.20;95.90
52103;DHT22;38101;53.126;6.878;2023-07-09T11:58:35;32.20;96.10
52103;DHT22;38101;53.126;6.878;2023-07-09T12:01:01;32.40;96.30
52103;DHT22;38101;53.126;6.878;2023-07-09T12:03:32;32.60;96.10
52103;DHT22;38101;53.126;6.878;2023-07-09T12:06:02;32.70;95.10
52103;DHT22;38101;53.126;6.878;2023-07-09T12:08:34;32.80;94.80
52103;DHT22;38101;53.126;6.878;2023-07-09T12:11:01;33.00;94.70
52103;DHT22;38101;53.126;6.878;2023-07-09T12:13:27;33.10;94.20
52103;DHT22;38101;53.126;6.878;2023-07-09T12:15:52;33.20;94.00
52103;DHT22;38101;53.126;6.878;2023-07-09T12:18:18;33.30;93.90
52103;DHT22;38101;53.126;6.878;2023-07-09T12:20:52;33.40;94.10
52103;DHT22;38101;53.126;6.878;2023-07-09T12:23:27;33.60;94.00
52103;DHT22;38101;53.126;6.878;2023-07-09T12:25:54;33.60;93.80
52103;DHT22;38101;53.126;6.878;2023-07-09T12:28:21;33.60;93.40
52103;DHT22;38101;53.126;6.878;2023-07-09T12:30:52;33.70;93.30
52103;DHT22;38101;53.126;6.878;2023-07-09T12:33:20;33.80;93.00
52103;DHT22;38101;53.126;6.878;2023-07-09T12:35:47;33.80;93.30
52103;DHT22;38101;53.126;6.878;2023-07-09T12:38:23;33.90;93.30
52103;DHT22;38101;53.126;6.878;2023-07-09T12:40:50;34.00;93.20
52103;DHT22;38101;53.126;6.878;2023-07-09T12:43:27;34.10;92.80
52103;DHT22;38101;53.126;6.878;2023-07-09T12:45:54;34.20;92.00
52103;DHT22;38101;53.126;6.878;2023-07-09T12:48:27;34.20;92.30
52103;DHT22;38101;53.126;6.878;2023-07-09T12:50:56;34.30;92.20
52103;DHT22;38101;53.126;6.878;2023-07-09T12:53:25;34.40;91.60
52103;DHT22;38101;53.126;6.878;2023-07-09T12:55:59;34.70;90.20
52103;DHT22;38101;53.126;6.878;2023-07-09T12:58:33;34.70;90.30
52103;DHT22;38101;53.126;6.878;2023-07-09T13:01:05;34.80;90.60
52103;DHT22;38101;53.126;6.878;2023-07-09T13:03:33;34.90;90.90
52103;DHT22;38101;53.126;6.878;2023-07-09T13:06:05;35.00;91.00
52103;DHT22;38101;53.126;6.878;2023-07-09T13:08:33;35.00;89.60
52103;DHT22;38101;53.126;6.878;2023-07-09T13:11:17;35.00;90.10
52103;DHT22;38101;53.126;6.878;2023-07-09T13:13:54;34.90;89.40
52103;DHT22;38101;53.126;6.878;2023-07-09T13:16:20;34.80;90.00
52103;DHT22;38101;53.126;6.878;2023-07-09T13:18:45;34.70;90.40
52103;DHT22;38101;53.126;6.878;2023-07-09T13:21:16;34.60;90.50
52103;DHT22;38101;53.126;6.878;2023-07-09T13:23:42;34.50;90.60
52103;DHT22;38101;53.126;6.878;2023-07-09T13:26:08;34.30;90.70
52103;DHT22;38101;53.126;6.878;2023-07-09T13:28:34;34.20;90.40
52103;DHT22;38101;53.126;6.878;2023-07-09T13:31:14;34.10;90.10
52103;DHT22;38101;53.126;6.878;2023-07-09T13:33:42;34.10;90.00
52103;DHT22;38101;53.126;6.878;2023-07-09T13:36:08;33.90;89.40
52103;DHT22;38101;53.126;6.878;2023-07-09T13:38:35;33.80;89.00
52103;DHT22;38101;53.126;6.878;2023-07-09T13:41:10;33.70;89.20
52103;DHT22;38101;53.126;6.878;2023-07-09T13:43:39;33.50;88.90
52103;DHT22;38101;53.126;6.878;2023-07-09T13:46:07;33.40;89.60
52103;DHT22;38101;53.126;6.878;2023-07-09T13:48:34;33.20;89.70
52103;DHT22;38101;53.126;6.878;2023-07-09T13:51:00;33.20;90.20
52103;DHT22;38101;53.126;6.878;2023-07-09T13:53:30;33.00;90.00
52103;DHT22;38101;53.126;6.878;2023-07-09T13:55:57;33.00;89.40
52103;DHT22;38101;53.126;6.878;2023-07-09T13:58:25;32.90;90.00
52103;DHT22;38101;53.126;6.878;2023-07-09T14:00:56;32.90;90.60
52103;DHT22;38101;53.126;6.878;2023-07-09T14:03:28;32.80;91.50
52103;DHT22;38101;53.126;6.878;2023-07-09T14:05:55;32.80;91.20
52103;DHT22;38101;53.126;6.878;2023-07-09T14:08:21;32.70;91.50
52103;DHT22;38101;53.126;6.878;2023-07-09T14:10:48;32.80;91.90
52103;DHT22;38101;53.126;6.878;2023-07-09T14:13:16;33.10;91.70
52103;DHT22;38101;53.126;6.878;2023-07-09T14:15:43;33.40;91.50
52103;DHT22;38101;53.126;6.878;2023-07-09T14:18:21;33.80;91.40
52103;DHT22;38101;53.126;6.878;2023-07-09T14:20:47;34.10;90.80
52103;DHT22;38101;53.126;6.878;2023-07-09T14:23:17;34.30;90.60
52103;DHT22;38101;53.126;6.878;2023-07-09T14:25:44;34.50;90.20
52103;DHT22;38101;53.126;6.878;2023-07-09T14:28:18;34.50;90.10
52103;DHT22;38101;53.126;6.878;2023-07-09T14:30:44;34.50;89.70
52103;DHT22;38101;53.126;6.878;2023-07-09T14:33:20;34.50;89.90
52103;DHT22;38101;53.126;6.878;2023-07-09T14:35:46;34.30;89.80
52103;DHT22;38101;53.126;6.878;2023-07-09T14:38:24;34.20;89.50
52103;DHT22;38101;53.126;6.878;2023-07-09T14:40:52;33.90;88.90
52103;DHT22;38101;53.126;6.878;2023-07-09T14:43:19;33.70;89.40
52103;DHT22;38101;53.126;6.878;2023-07-09T14:45:45;33.50;89.20
52103;DHT22;38101;53.126;6.878;2023-07-09T14:48:16;33.30;89.40
52103;DHT22;38101;53.126;6.878;2023-07-09T14:50:43;33.20;89.30
52103;DHT22;38101;53.126;6.878;2023-07-09T14:53:14;33.00;89.40
52103;DHT22;38101;53.126;6.878;2023-07-09T14:55:41;32.80;89.50
52103;DHT22;38101;53.126;6.878;2023-07-09T14:58:18;32.70;90.00
52103;DHT22;38101;53.126;6.878;2023-07-09T15:00:45;32.50;90.20
52103;DHT22;38101;53.126;6.878;2023-07-09T15:03:24;32.30;90.30
52103;DHT22;38101;53.126;6.878;2023-07-09T15:05:51;32.10;90.40
52103;DHT22;38101;53.126;6.878;2023-07-09T15:08:23;31.90;90.60
52103;DHT22;38101;53.126;6.878;2023-07-09T15:10:51;31.80;90.70
52103;DHT22;38101;53.126;6.878;2023-07-09T15:13:25;31.70;90.90
52103;DHT22;38101;53.126;6.878;2023-07-09T15:15:52;31.60;91.30
52103;DHT22;38101;53.126;6.878;2023-07-09T15:18:18;31.40;91.60
52103;DHT22;38101;53.126;6.878;2023-07-09T15:20:49;31.30;91.90
52103;DHT22;38101;53.126;6.878;2023-07-09T15:23:15;31.20;92.20
52103;DHT22;38101;53.126;6.878;2023-07-09T15:25:41;31.10;92.20
52103;DHT22;38101;53.126;6.878;2023-07-09T15:28:10;31.00;92.50
52103;DHT22;38101;53.126;6.878;2023-07-09T15:30:36;30.90;92.90
52103;DHT22;38101;53.126;6.878;2023-07-09T15:33:04;30.80;93.10
52103;DHT22;38101;53.126;6.878;2023-07-09T15:35:35;30.80;93.50
52103;DHT22;38101;53.126;6.878;2023-07-09T15:40:46;30.50;94.50
52103;DHT22;38101;53.126;6.878;2023-07-09T15:43:13;30.40;94.70
52103;DHT22;38101;53.126;6.878;2023-07-09T15:45:44;30.30;95.00
52103;DHT22;38101;53.126;6.878;2023-07-09T15:50:47;30.20;96.30
52103;DHT22;38101;53.126;6.878;2023-07-09T15:53:13;30.40;90.40
52103;DHT22;38101;53.126;6.878;2023-07-09T15:55:39;29.60;86.70
52103;DHT22;38101;53.126;6.878;2023-07-09T15:58:05;28.70;85.70
52103;DHT22;38101;53.126;6.878;2023-07-09T16:00:32;27.90;89.00
52103;DHT22;38101;53.126;6.878;2023-07-09T16:02:59;27.40;91.00
52103;DHT22;38101;53.126;6.878;2023-07-09T16:05:26;27.00;90.60
52103;DHT22;38101;53.126;6.878;2023-07-09T16:07:53;26.50;90.20
52103;DHT22;38101;53.126;6.878;2023-07-09T16:10:21;26.00;91.10
52103;DHT22;38101;53.126;6.878;2023-07-09T16:12:48;25.70;91.90
52103;DHT22;38101;53.126;6.878;2023-07-09T16:15:17;25.40;92.40
52103;DHT22;38101;53.126;6.878;2023-07-09T16:17:45;25.20;92.60
52103;DHT22;38101;53.126;6.878;2023-07-09T16:20:13;25.00;93.20
52103;DHT22;38101;53.126;6.878;2023-07-09T16:22:40;24.80;94.20